createdAt,value
2023-11-15T00:01:13.888Z,92.77
2023-11-15T00:03:42.373Z,92.67
2023-11-15T00:06:13.494Z,92.57
2023-11-15T00:08:41.857Z,92.57
2023-11-15T00:11:11.456Z,92.68
2023-11-15T00:13:39.788Z,92.69
2023-11-15T00:16:09.369Z,92.78
2023-11-15T00:18:38.837Z,92.83
2023-11-15T00:21:07.917Z,92.87
2023-11-15T00:23:37.703Z,92.90
2023-11-15T00:26:06.594Z,92.93
2023-11-15T00:28:35.910Z,92.87
2023-11-15T00:31:04.669Z,92.79
2023-11-15T00:33:32.931Z,92.80
2023-11-15T00:36:02.248Z,93.10
2023-11-15T00:38:30.605Z,93.19
2023-11-15T00:41:02.780Z,93.22
2023-11-15T00:43:31.220Z,93.35
2023-11-15T00:45:59.371Z,93.33
2023-11-15T00:48:28.714Z,93.33
2023-11-15T00:50:57.021Z,93.40
2023-11-15T00:53:26.010Z,93.54
2023-11-15T00:55:56.712Z,93.49
2023-11-15T00:58:30.890Z,93.55
2023-11-15T01:01:01.721Z,93.60
2023-11-15T01:03:31.702Z,93.63
2023-11-15T01:06:02.678Z,93.66
2023-11-15T01:08:30.847Z,93.72
2023-11-15T01:11:00.933Z,93.65
2023-11-15T01:13:30.709Z,93.61
2023-11-15T01:16:00.088Z,93.61
2023-11-15T01:18:32.359Z,93.60
2023-11-15T01:21:00.651Z,93.58
2023-11-15T01:23:30.597Z,93.62
2023-11-15T01:25:59.940Z,93.66
2023-11-15T01:28:32.233Z,93.66
2023-11-15T01:31:00.577Z,93.80
2023-11-15T01:33:28.994Z,93.76
2023-11-15T01:35:57.340Z,93.79
2023-11-15T01:38:25.840Z,93.85
2023-11-15T01:40:55.083Z,93.76
2023-11-15T01:43:23.578Z,93.85
2023-11-15T01:45:54.389Z,93.80
2023-11-15T01:48:23.227Z,93.71
2023-11-15T01:50:52.664Z,93.48
2023-11-15T01:53:22.017Z,93.45
2023-11-15T01:55:52.294Z,93.49
2023-11-15T01:58:21.435Z,93.51
2023-11-15T02:01:15.402Z,93.55
2023-11-15T02:03:45.989Z,93.52
2023-11-15T02:06:15.372Z,93.50
2023-11-15T02:08:43.699Z,93.57
2023-11-15T02:11:12.082Z,93.61
2023-11-15T02:13:40.746Z,93.80
2023-11-15T02:16:11.692Z,93.85
2023-11-15T02:18:41.671Z,93.97
2023-11-15T02:21:11.497Z,93.89
2023-11-15T02:23:44.432Z,93.82
2023-11-15T02:26:13.102Z,93.86
2023-11-15T02:28:47.352Z,93.81
2023-11-15T02:31:16.613Z,93.63
2023-11-15T02:33:46.273Z,93.68
2023-11-15T02:36:18.578Z,93.62
2023-11-15T02:38:48.289Z,93.50
2023-11-15T02:41:17.386Z,93.62
2023-11-15T02:43:45.542Z,93.75
2023-11-15T02:46:19.782Z,93.84
2023-11-15T02:48:48.006Z,94.08
2023-11-15T02:51:16.283Z,94.07
2023-11-15T02:53:45.824Z,93.94
2023-11-15T02:56:16.880Z,93.74
2023-11-15T02:58:49.612Z,93.73
2023-11-15T03:01:22.518Z,93.85
2023-11-15T03:03:51.909Z,93.83
2023-11-15T03:06:21.121Z,93.88
2023-11-15T03:08:49.362Z,93.92
2023-11-15T03:11:19.211Z,93.89
2023-11-15T03:14:15.116Z,93.88
2023-11-15T03:16:56.046Z,93.83
2023-11-15T03:19:24.515Z,93.86
2023-11-15T03:21:54.916Z,93.97
2023-11-15T03:24:24.206Z,94.46
2023-11-15T03:26:56.119Z,94.43
2023-11-15T03:29:24.448Z,94.43
2023-11-15T03:31:54.680Z,94.42
2023-11-15T03:34:23.983Z,94.31
2023-11-15T03:36:54.342Z,94.29
2023-11-15T03:39:23.353Z,94.32
2023-11-15T03:41:52.579Z,94.34
2023-11-15T03:44:24.203Z,94.38
2023-11-15T03:46:53.329Z,94.38
2023-11-15T03:49:21.879Z,94.36
2023-11-15T03:51:51.036Z,94.41
2023-11-15T03:54:21.900Z,94.40
2023-11-15T03:56:51.519Z,94.33
2023-11-15T03:59:20.617Z,94.30
2023-11-15T04:01:57.079Z,94.29
2023-11-15T04:04:27.906Z,94.27
2023-11-15T04:06:56.383Z,94.22
2023-11-15T04:09:25.158Z,94.12
2023-11-15T04:11:56.356Z,94.17
2023-11-15T04:14:26.280Z,94.32
2023-11-15T04:16:55.973Z,94.47
2023-11-15T04:19:26.303Z,94.27
2023-11-15T04:22:08.691Z,94.15
2023-11-15T04:24:42.216Z,94.13
2023-11-15T04:27:11.566Z,94.27
2023-11-15T04:29:41.064Z,94.46
2023-11-15T04:32:12.147Z,94.40
2023-11-15T04:34:40.553Z,94.36
2023-11-15T04:37:10.511Z,94.40
2023-11-15T04:39:38.843Z,94.53
2023-11-15T04:42:08.449Z,94.67
2023-11-15T04:44:36.980Z,94.71
2023-11-15T04:47:06.753Z,94.72
2023-11-15T04:49:38.318Z,94.74
2023-11-15T04:52:07.112Z,94.65
2023-11-15T04:54:35.643Z,94.44
2023-11-15T04:57:04.741Z,94.40
2023-11-15T04:59:34.092Z,94.00
2023-11-15T05:02:03.637Z,94.12
2023-11-15T05:04:32.164Z,93.93
2023-11-15T05:07:02.874Z,93.80
2023-11-15T05:09:32.053Z,93.77
2023-11-15T05:12:01.381Z,93.72
2023-11-15T05:14:29.660Z,93.68
2023-11-15T05:17:00.047Z,93.51
2023-11-15T05:19:29.317Z,93.40
2023-11-15T05:21:57.543Z,93.23
2023-11-15T05:24:27.215Z,93.23
2023-11-15T05:26:56.369Z,93.11
2023-11-15T05:29:26.697Z,92.93
2023-11-15T05:31:55.898Z,93.00
2023-11-15T05:34:24.117Z,93.24
2023-11-15T05:36:52.563Z,93.37
2023-11-15T05:39:20.883Z,93.48
2023-11-15T05:41:51.301Z,93.56
2023-11-15T05:44:19.683Z,93.75
2023-11-15T05:46:47.952Z,93.86
2023-11-15T05:49:17.038Z,93.81
2023-11-15T05:51:45.242Z,93.93
2023-11-15T05:54:13.421Z,94.02
2023-11-15T05:56:50.118Z,93.89
2023-11-15T05:59:20.817Z,93.94
2023-11-15T06:01:49.021Z,93.33
2023-11-15T06:04:18.304Z,93.47
2023-11-15T06:06:46.429Z,93.59
2023-11-15T06:09:18.590Z,94.08
2023-11-15T06:11:47.960Z,94.17
2023-11-15T06:14:19.967Z,94.38
2023-11-15T06:16:48.241Z,94.70
2023-11-15T06:19:17.305Z,94.66
2023-11-15T06:21:46.536Z,94.68
2023-11-15T06:24:17.965Z,94.71
2023-11-15T06:26:50.479Z,94.93
2023-11-15T06:29:23.464Z,95.00
2023-11-15T06:31:53.851Z,95.67
2023-11-15T06:34:22.098Z,95.68
2023-11-15T06:36:50.393Z,95.63
2023-11-15T06:39:22.366Z,95.72
2023-11-15T06:41:51.565Z,95.91
2023-11-15T06:44:22.394Z,95.73
2023-11-15T06:46:52.147Z,95.80
2023-11-15T06:49:21.638Z,95.85
2023-11-15T06:51:50.705Z,96.08
2023-11-15T06:54:19.918Z,95.98
2023-11-15T06:56:49.871Z,94.67
2023-11-15T06:59:18.635Z,93.48
2023-11-15T07:01:50.355Z,90.14
2023-11-15T07:04:20.676Z,86.31
2023-11-15T07:06:49.275Z,86.50
2023-11-15T07:09:19.334Z,84.35
2023-11-15T07:11:49.072Z,83.78
2023-11-15T07:14:21.539Z,83.33
2023-11-15T07:16:53.869Z,81.70
2023-11-15T07:19:22.289Z,79.44
2023-11-15T07:21:50.679Z,78.88
2023-11-15T07:24:20.659Z,80.04
2023-11-15T07:26:49.684Z,79.08
2023-11-15T07:29:21.276Z,78.38
2023-11-15T07:31:57.722Z,77.09
2023-11-15T07:34:28.421Z,77.93
2023-11-15T07:36:59.163Z,78.45
2023-11-15T07:39:30.446Z,79.09
2023-11-15T07:42:04.728Z,78.01
2023-11-15T07:44:37.457Z,77.57
2023-11-15T07:47:07.891Z,77.11
2023-11-15T07:49:37.562Z,77.71
2023-11-15T07:52:06.178Z,77.46
2023-11-15T07:54:36.459Z,77.40
2023-11-15T07:57:07.743Z,77.53
2023-11-15T07:59:37.245Z,75.98
2023-11-15T08:02:07.957Z,75.41
2023-11-15T08:04:36.707Z,75.45
2023-11-15T08:07:07.037Z,74.12
2023-11-15T08:09:35.520Z,74.39
2023-11-15T08:12:06.787Z,73.18
2023-11-15T08:14:36.255Z,72.75
2023-11-15T08:17:07.309Z,73.04
2023-11-15T08:19:35.554Z,73.22
2023-11-15T08:22:05.053Z,72.14
2023-11-15T08:24:34.483Z,73.10
2023-11-15T08:27:04.941Z,73.97
2023-11-15T08:29:33.835Z,73.51
2023-11-15T08:32:02.346Z,74.95
2023-11-15T08:34:33.384Z,74.21
2023-11-15T08:37:07.879Z,74.55
2023-11-15T08:39:38.388Z,74.62
2023-11-15T08:42:07.994Z,74.37
2023-11-15T08:44:39.389Z,73.80
2023-11-15T08:47:08.108Z,74.53
2023-11-15T08:49:40.519Z,73.80
2023-11-15T08:52:17.757Z,74.36
2023-11-15T08:54:46.763Z,75.03
2023-11-15T08:57:16.652Z,74.51
2023-11-15T08:59:46.566Z,74.86
2023-11-15T09:02:17.153Z,73.90
2023-11-15T09:04:47.283Z,74.47
2023-11-15T09:07:17.032Z,74.35
2023-11-15T09:09:47.101Z,73.25
2023-11-15T09:12:17.230Z,74.09
2023-11-15T09:14:50.304Z,73.67
2023-11-15T09:17:19.167Z,72.82
2023-11-15T09:19:50.283Z,72.38
2023-11-15T09:22:19.348Z,72.08
2023-11-15T09:24:57.727Z,72.97
2023-11-15T09:27:33.871Z,73.04
2023-11-15T09:30:03.067Z,72.64
2023-11-15T09:32:34.013Z,73.79
2023-11-15T09:35:07.432Z,72.19
2023-11-15T09:37:36.764Z,73.88
2023-11-15T09:40:07.676Z,72.68
2023-11-15T09:42:38.266Z,73.35
2023-11-15T09:45:09.247Z,73.06
2023-11-15T09:47:38.000Z,72.91
2023-11-15T09:50:16.648Z,72.25
2023-11-15T09:52:47.788Z,73.16
2023-11-15T09:55:16.176Z,72.53
2023-11-15T09:57:45.260Z,73.44
2023-11-15T10:00:22.047Z,73.55
2023-11-15T10:02:54.320Z,73.11
2023-11-15T10:05:28.401Z,72.28
2023-11-15T10:08:10.099Z,71.62
2023-11-15T10:10:43.032Z,71.74
2023-11-15T10:13:15.413Z,72.20
2023-11-15T10:15:48.167Z,72.63
2023-11-15T10:18:19.648Z,72.75
2023-11-15T10:20:53.320Z,71.66
2023-11-15T10:23:33.647Z,71.85
2023-11-15T10:26:02.756Z,70.86
2023-11-15T10:28:34.117Z,71.06
2023-11-15T10:31:06.770Z,72.02
2023-11-15T10:33:39.685Z,70.08
2023-11-15T10:36:17.918Z,71.39
2023-11-15T10:38:49.403Z,71.52
2023-11-15T10:41:22.930Z,70.98
2023-11-15T10:43:53.476Z,70.39
2023-11-15T10:46:30.745Z,71.49
2023-11-15T10:49:01.137Z,71.70
2023-11-15T10:51:43.857Z,70.79
2023-11-15T10:54:13.895Z,71.18
2023-11-15T10:56:43.157Z,72.04
2023-11-15T10:59:14.913Z,71.12
2023-11-15T11:01:43.806Z,70.90
2023-11-15T11:04:14.366Z,70.97
2023-11-15T11:06:51.797Z,71.49
2023-11-15T11:09:26.708Z,69.94
2023-11-15T11:12:01.944Z,70.52
2023-11-15T11:14:32.489Z,70.42
2023-11-15T11:17:01.302Z,70.78
2023-11-15T11:19:32.035Z,69.92
2023-11-15T11:22:13.467Z,69.35
2023-11-15T11:24:47.435Z,68.82
2023-11-15T11:27:34.955Z,69.07
2023-11-15T11:30:22.390Z,68.91
2023-11-15T11:33:08.390Z,67.69
2023-11-15T11:35:44.187Z,67.52
2023-11-15T11:38:33.613Z,68.37
2023-11-15T11:41:04.013Z,68.32
2023-11-15T11:43:35.044Z,66.61
2023-11-15T11:46:20.190Z,67.31
2023-11-15T11:48:48.738Z,67.71
2023-11-15T11:51:18.595Z,66.85
2023-11-15T11:53:50.899Z,66.34
2023-11-15T11:56:19.286Z,66.97
2023-11-15T11:58:53.965Z,66.16
2023-11-15T12:01:23.151Z,67.33
2023-11-15T12:04:03.763Z,67.51
2023-11-15T12:06:34.211Z,67.01
2023-11-15T12:09:04.192Z,66.78
2023-11-15T12:11:33.562Z,66.68
2023-11-15T12:14:01.730Z,66.18
2023-11-15T12:16:32.557Z,66.83
2023-11-15T12:19:09.331Z,66.60
2023-11-15T12:21:39.718Z,66.94
2023-11-15T12:24:11.468Z,67.08
2023-11-15T12:26:47.790Z,66.92
2023-11-15T12:29:21.409Z,65.67
2023-11-15T12:31:54.891Z,65.98
2023-11-15T12:34:25.552Z,65.57
2023-11-15T12:36:54.192Z,65.36
2023-11-15T12:39:24.194Z,65.96
2023-11-15T12:41:59.629Z,66.25
2023-11-15T12:44:29.875Z,67.28
2023-11-15T12:47:01.783Z,66.72
2023-11-15T12:49:30.096Z,67.61
2023-11-15T12:51:58.188Z,66.91
2023-11-15T12:54:27.813Z,67.61
2023-11-15T12:57:06.485Z,67.88
2023-11-15T12:59:37.698Z,68.35
2023-11-15T13:02:06.996Z,67.95
2023-11-15T13:04:48.492Z,68.08
2023-11-15T13:07:17.174Z,67.92
2023-11-15T13:09:47.603Z,68.08
2023-11-15T13:12:27.996Z,68.42
2023-11-15T13:14:56.693Z,67.80
2023-11-15T13:17:28.718Z,68.42
2023-11-15T13:20:01.582Z,68.15
2023-11-15T13:22:32.874Z,67.56
2023-11-15T13:25:02.671Z,66.94
2023-11-15T13:27:30.984Z,67.88
2023-11-15T13:30:00.580Z,66.88
2023-11-15T13:32:31.329Z,67.37
2023-11-15T13:35:03.544Z,67.13
2023-11-15T13:37:32.723Z,66.87
2023-11-15T13:40:04.893Z,67.82
2023-11-15T13:42:34.288Z,68.24
2023-11-15T13:45:06.487Z,67.75
2023-11-15T13:47:34.709Z,67.67
2023-11-15T13:50:04.036Z,68.11
2023-11-15T13:52:32.425Z,68.11
2023-11-15T13:55:02.502Z,68.86
2023-11-15T13:57:31.189Z,68.97
2023-11-15T14:00:01.625Z,68.01
2023-11-15T14:02:32.724Z,68.27
2023-11-15T14:05:02.855Z,65.77
2023-11-15T14:07:31.287Z,65.90
2023-11-15T14:10:04.216Z,64.57
2023-11-15T14:12:33.477Z,64.18
2023-11-15T14:15:03.347Z,64.23
2023-11-15T14:17:33.451Z,64.39
2023-11-15T14:20:07.388Z,65.33
2023-11-15T14:22:35.980Z,65.56
2023-11-15T14:25:08.853Z,65.49
2023-11-15T14:27:38.993Z,65.41
2023-11-15T14:30:11.836Z,65.49
2023-11-15T14:32:40.605Z,65.40
2023-11-15T14:35:10.856Z,65.10
2023-11-15T14:37:40.916Z,66.03
2023-11-15T14:40:13.800Z,65.73
2023-11-15T14:42:47.256Z,65.91
2023-11-15T14:45:16.800Z,66.18
2023-11-15T14:47:46.386Z,66.21
2023-11-15T14:50:17.913Z,66.43
2023-11-15T14:52:54.543Z,66.23
2023-11-15T14:55:29.224Z,65.69
2023-11-15T14:57:58.534Z,65.35
2023-11-15T15:00:27.145Z,66.09
2023-11-15T15:02:55.995Z,64.81
2023-11-15T15:05:25.712Z,64.91
2023-11-15T15:07:54.175Z,66.15
2023-11-15T15:10:24.166Z,65.37
2023-11-15T15:12:52.614Z,66.33
2023-11-15T15:15:22.474Z,65.42
2023-11-15T15:17:51.972Z,65.44
2023-11-15T15:20:21.020Z,65.37
2023-11-15T15:22:49.315Z,64.88
2023-11-15T15:25:17.519Z,65.39
2023-11-15T15:27:47.204Z,66.25
2023-11-15T15:30:18.281Z,66.07
2023-11-15T15:32:46.789Z,66.28
2023-11-15T15:35:21.361Z,66.17
2023-11-15T15:37:50.500Z,64.97
2023-11-15T15:40:20.253Z,65.30
2023-11-15T15:42:50.133Z,65.20
2023-11-15T15:45:18.508Z,66.58
2023-11-15T15:47:47.860Z,66.63
2023-11-15T15:50:17.348Z,67.04
2023-11-15T15:52:48.445Z,67.42
2023-11-15T15:55:17.478Z,67.60
2023-11-15T15:57:46.187Z,67.80
2023-11-15T16:00:18.388Z,67.65
2023-11-15T16:02:47.993Z,67.57
2023-11-15T16:05:19.289Z,67.31
2023-11-15T16:07:47.824Z,66.92
2023-11-15T16:10:16.251Z,67.03
2023-11-15T16:12:44.548Z,67.09
2023-11-15T16:15:18.118Z,67.41
2023-11-15T16:17:50.261Z,67.95
2023-11-15T16:20:20.676Z,68.16
2023-11-15T16:22:49.016Z,68.09
2023-11-15T16:25:19.807Z,68.31
2023-11-15T16:27:48.170Z,68.44
2023-11-15T16:30:17.060Z,68.76
2023-11-15T16:32:47.212Z,68.48
2023-11-15T16:35:16.274Z,68.84
2023-11-15T16:37:44.557Z,69.36
2023-11-15T16:40:13.302Z,68.78
2023-11-15T16:42:42.156Z,68.31
2023-11-15T16:45:11.948Z,67.56
2023-11-15T16:47:41.743Z,67.82
2023-11-15T16:50:11.864Z,68.14
2023-11-15T16:52:40.516Z,67.68
2023-11-15T16:55:13.878Z,67.71
2023-11-15T16:57:42.596Z,67.61
2023-11-15T17:00:14.635Z,67.40
2023-11-15T17:02:45.463Z,67.38
2023-11-15T17:05:15.584Z,66.62
2023-11-15T17:07:43.945Z,67.28
2023-11-15T17:10:12.204Z,66.16
2023-11-15T17:12:40.813Z,66.18
2023-11-15T17:15:13.437Z,66.53
2023-11-15T17:17:43.022Z,67.10
2023-11-15T17:20:12.354Z,67.66
2023-11-15T17:22:42.149Z,67.24
2023-11-15T17:25:19.568Z,67.74
2023-11-15T17:27:58.294Z,66.66
2023-11-15T17:30:29.283Z,67.50
2023-11-15T17:33:01.057Z,67.84
2023-11-15T17:35:29.545Z,67.79
2023-11-15T17:38:01.109Z,67.94
2023-11-15T17:40:39.524Z,67.76
2023-11-15T17:43:08.150Z,67.94
2023-11-15T17:45:36.902Z,67.62
2023-11-15T17:48:05.493Z,67.84
2023-11-15T17:50:33.921Z,67.58
2023-11-15T17:53:04.812Z,67.73
2023-11-15T17:55:33.658Z,66.99
2023-11-15T17:58:02.682Z,66.67
2023-11-15T18:00:33.805Z,67.03
2023-11-15T18:03:02.417Z,67.62
2023-11-15T18:05:32.285Z,67.16
2023-11-15T18:08:01.296Z,66.34
2023-11-15T18:10:31.432Z,66.79
2023-11-15T18:13:01.075Z,67.01
2023-11-15T18:15:30.531Z,66.12
2023-11-15T18:17:59.739Z,66.11
2023-11-15T18:20:29.425Z,65.68
2023-11-15T18:22:58.569Z,66.24
2023-11-15T18:25:27.670Z,66.11
2023-11-15T18:27:58.253Z,66.68
2023-11-15T18:30:28.457Z,66.54
2023-11-15T18:32:59.578Z,67.05
2023-11-15T18:35:30.460Z,67.18
2023-11-15T18:38:01.027Z,67.68
2023-11-15T18:40:39.507Z,68.38
2023-11-15T18:43:11.897Z,68.68
2023-11-15T18:45:44.604Z,69.06
2023-11-15T18:48:15.046Z,69.02
2023-11-15T18:50:45.377Z,69.40
2023-11-15T18:53:17.149Z,69.64
2023-11-15T18:55:48.113Z,70.28
2023-11-15T18:58:19.862Z,70.79
2023-11-15T19:00:49.954Z,71.14
2023-11-15T19:03:19.928Z,71.75
2023-11-15T19:05:50.029Z,72.11
2023-11-15T19:08:23.405Z,72.76
2023-11-15T19:10:56.124Z,73.22
2023-11-15T19:13:28.516Z,73.32
2023-11-15T19:15:59.940Z,73.49
2023-11-15T19:18:31.514Z,73.06
2023-11-15T19:21:04.832Z,73.01
2023-11-15T19:23:35.941Z,73.33
2023-11-15T19:26:09.340Z,73.51
2023-11-15T19:28:43.363Z,73.27
2023-11-15T19:31:18.448Z,73.56
2023-11-15T19:33:50.008Z,73.53
2023-11-15T19:36:22.841Z,74.26
2023-11-15T19:38:54.416Z,74.39
2023-11-15T19:41:26.749Z,74.71
2023-11-15T19:44:03.591Z,74.76
2023-11-15T19:46:35.106Z,74.60
2023-11-15T19:49:09.240Z,74.86
2023-11-15T19:51:41.401Z,74.65
2023-11-15T19:54:18.050Z,75.22
2023-11-15T19:56:49.902Z,74.99
2023-11-15T19:59:25.911Z,75.07
2023-11-15T20:01:59.667Z,74.72
2023-11-15T20:04:33.479Z,74.93
2023-11-15T20:07:09.680Z,74.49
2023-11-15T20:09:44.041Z,74.18
2023-11-15T20:12:15.269Z,73.78
2023-11-15T20:14:48.229Z,73.38
2023-11-15T20:17:22.852Z,72.77
2023-11-15T20:19:54.835Z,73.21
2023-11-15T20:22:38.366Z,73.26
2023-11-15T20:25:16.169Z,72.69
2023-11-15T20:27:48.969Z,72.53
2023-11-15T20:30:23.132Z,72.56
2023-11-15T20:32:56.363Z,72.20
2023-11-15T20:35:27.348Z,72.71
2023-11-15T20:37:57.958Z,72.60
2023-11-15T20:40:30.669Z,72.23
2023-11-15T20:43:01.728Z,72.38
2023-11-15T20:45:33.839Z,72.67
2023-11-15T20:48:03.859Z,72.73
2023-11-15T20:50:34.405Z,73.11
2023-11-15T20:53:05.249Z,73.55
2023-11-15T20:55:35.478Z,73.45
2023-11-15T20:58:07.967Z,73.83
2023-11-15T21:00:40.141Z,73.31
2023-11-15T21:03:11.416Z,73.50
2023-11-15T21:05:40.615Z,73.83
2023-11-15T21:08:10.747Z,73.50
2023-11-15T21:10:41.593Z,73.34
2023-11-15T21:13:10.417Z,72.96
2023-11-15T21:15:40.362Z,72.76
2023-11-15T21:18:10.315Z,72.84
2023-11-15T21:20:41.069Z,72.79
2023-11-15T21:23:10.010Z,73.21
2023-11-15T21:25:38.470Z,73.37
2023-11-15T21:28:08.211Z,73.27
2023-11-15T21:30:38.373Z,73.51
2023-11-15T21:33:11.403Z,73.64
2023-11-15T21:35:40.381Z,74.03
2023-11-15T21:38:09.287Z,74.08
2023-11-15T21:40:37.714Z,74.14
2023-11-15T21:43:08.527Z,74.37
2023-11-15T21:45:36.873Z,74.73
2023-11-15T21:48:05.210Z,74.81
2023-11-15T21:50:35.309Z,75.10
2023-11-15T21:53:07.946Z,75.42
2023-11-15T21:55:36.289Z,75.17
2023-11-15T21:58:08.172Z,75.12
2023-11-15T22:00:36.584Z,75.30
2023-11-15T22:03:04.993Z,75.59
2023-11-15T22:05:36.411Z,75.44
2023-11-15T22:08:04.765Z,75.69
2023-11-15T22:10:34.244Z,75.64
2023-11-15T22:13:04.683Z,76.01
2023-11-15T22:15:35.052Z,76.57
2023-11-15T22:18:03.547Z,76.32
2023-11-15T22:20:31.858Z,76.73
2023-11-15T22:23:01.511Z,76.77
2023-11-15T22:25:29.758Z,77.20
2023-11-15T22:27:57.993Z,77.20
2023-11-15T22:30:26.176Z,77.23
2023-11-15T22:32:54.562Z,77.40
2023-11-15T22:35:23.712Z,77.41
2023-11-15T22:37:52.924Z,77.58
2023-11-15T22:40:22.572Z,77.92
2023-11-15T22:43:04.606Z,78.19
2023-11-15T22:45:33.105Z,78.21
2023-11-15T22:48:01.414Z,78.22
2023-11-15T22:50:29.703Z,78.63
2023-11-15T22:52:58.601Z,78.55
2023-11-15T22:55:29.274Z,78.61
2023-11-15T22:57:57.652Z,78.58
2023-11-15T23:00:34.345Z,78.71
2023-11-15T23:03:10.654Z,78.86
2023-11-15T23:05:41.845Z,78.66
2023-11-15T23:08:12.006Z,78.63
2023-11-15T23:10:41.803Z,78.44
2023-11-15T23:13:10.083Z,78.39
2023-11-15T23:15:39.599Z,77.97
2023-11-15T23:18:08.065Z,77.83
2023-11-15T23:20:37.073Z,77.76
2023-11-15T23:23:06.159Z,77.81
2023-11-15T23:25:34.623Z,77.05
2023-11-15T23:28:05.558Z,76.97
2023-11-15T23:30:36.147Z,77.29
2023-11-15T23:33:04.706Z,77.07
2023-11-15T23:35:34.146Z,77.33
2023-11-15T23:38:02.744Z,77.33
2023-11-15T23:40:32.123Z,76.96
2023-11-15T23:43:01.359Z,77.26
2023-11-15T23:45:31.750Z,77.19
2023-11-15T23:48:01.905Z,77.19
2023-11-15T23:50:30.394Z,77.28
2023-11-15T23:52:59.542Z,77.00
2023-11-15T23:55:27.746Z,77.35
2023-11-15T23:57:56.873Z,77.05
